sensor_id;sensor_type;location;lat;lon;timestamp;temperature;humidity
65836;SHT30;52595;51.608;7.216;2022-09-03T00:00:36;16.16;58.02
65836;SHT30;52595;51.608;7.216;2022-09-03T00:03:15;16.14;58.07
65836;SHT30;52595;51.608;7.216;2022-09-03T00:13:26;15.89;58.71
65836;SHT30;52595;51.608;7.216;2022-09-03T00:15:54;15.89;58.87
65836;SHT30;52595;51.608;7.216;2022-09-03T00:18:24;15.92;58.77
65836;SHT30;52595;51.608;7.216;2022-09-03T00:21:03;15.79;59.14
65836;SHT30;52595;51.608;7.216;2022-09-03T00:23:37;15.85;58.92
65836;SHT30;52595;51.608;7.216;2022-09-03T00:29:08;15.86;59.00
65836;SHT30;52595;51.608;7.216;2022-09-03T00:31:41;15.82;59.08
65836;SHT30;52595;51.608;7.216;2022-09-03T00:36:48;15.81;59.10
65836;SHT30;52595;51.608;7.216;2022-09-03T00:39:19;15.66;59.63
65836;SHT30;52595;51.608;7.216;2022-09-03T00:45:03;15.51;60.13
65836;SHT30;52595;51.608;7.216;2022-09-03T00:58:58;15.58;59.81
65836;SHT30;52595;51.608;7.216;2022-09-03T01:01:49;15.45;60.06
65836;SHT30;52595;51.608;7.216;2022-09-03T01:09:43;15.25;60.83
65836;SHT30;52595;51.608;7.216;2022-09-03T01:20:49;15.01;61.62
65836;SHT30;52595;51.608;7.216;2022-09-03T01:26:29;15.01;61.80
65836;SHT30;52595;51.608;7.216;2022-09-03T01:29:28;14.93;62.07
65836;SHT30;52595;51.608;7.216;2022-09-03T01:32:13;14.73;63.11
65836;SHT30;52595;51.608;7.216;2022-09-03T01:37:47;14.62;63.30
65836;SHT30;52595;51.608;7.216;2022-09-03T01:44:17;14.70;63.13
65836;SHT30;52595;51.608;7.216;2022-09-03T01:46:23;14.79;62.84
65836;SHT30;52595;51.608;7.216;2022-09-03T01:49:03;14.85;62.51
65836;SHT30;52595;51.608;7.216;2022-09-03T01:51:31;14.90;62.43
65836;SHT30;52595;51.608;7.216;2022-09-03T01:54:24;14.94;62.33
65836;SHT30;52595;51.608;7.216;2022-09-03T01:59:48;14.84;62.63
65836;SHT30;52595;51.608;7.216;2022-09-03T02:02:20;14.85;62.51
65836;SHT30;52595;51.608;7.216;2022-09-03T02:07:42;14.80;62.60
65836;SHT30;52595;51.608;7.216;2022-09-03T02:10:15;14.66;63.09
65836;SHT30;52595;51.608;7.216;2022-09-03T02:12:45;14.60;63.29
65836;SHT30;52595;51.608;7.216;2022-09-03T02:15:16;14.59;63.44
65836;SHT30;52595;51.608;7.216;2022-09-03T02:17:44;14.47;63.75
65836;SHT30;52595;51.608;7.216;2022-09-03T02:20:19;14.46;63.74
65836;SHT30;52595;51.608;7.216;2022-09-03T02:22:46;14.36;64.13
65836;SHT30;52595;51.608;7.216;2022-09-03T02:25:13;14.40;64.10
65836;SHT30;52595;51.608;7.216;2022-09-03T02:27:39;14.40;64.07
65836;SHT30;52595;51.608;7.216;2022-09-03T02:30:06;14.37;64.15
65836;SHT30;52595;51.608;7.216;2022-09-03T02:32:32;14.32;64.27
65836;SHT30;52595;51.608;7.216;2022-09-03T02:34:57;14.29;64.43
65836;SHT30;52595;51.608;7.216;2022-09-03T02:37:23;14.25;64.58
65836;SHT30;52595;51.608;7.216;2022-09-03T02:39:48;14.20;64.74
65836;SHT30;52595;51.608;7.216;2022-09-03T02:42:17;14.20;64.78
65836;SHT30;52595;51.608;7.216;2022-09-03T02:44:47;14.32;64.33
65836;SHT30;52595;51.608;7.216;2022-09-03T02:47:14;14.42;63.97
65836;SHT30;52595;51.608;7.216;2022-09-03T02:49:39;14.33;64.24
65836;SHT30;52595;51.608;7.216;2022-09-03T02:52:08;14.20;64.78
65836;SHT30;52595;51.608;7.216;2022-09-03T02:54:34;14.25;64.45
65836;SHT30;52595;51.608;7.216;2022-09-03T02:57:05;14.18;64.71
65836;SHT30;52595;51.608;7.216;2022-09-03T02:59:30;14.12;65.06
65836;SHT30;52595;51.608;7.216;2022-09-03T03:01:55;14.10;64.89
65836;SHT30;52595;51.608;7.216;2022-09-03T03:04:21;14.04;65.23
65836;SHT30;52595;51.608;7.216;2022-09-03T03:06:47;14.01;65.41
65836;SHT30;52595;51.608;7.216;2022-09-03T03:09:15;14.02;65.21
65836;SHT30;52595;51.608;7.216;2022-09-03T03:11:40;14.08;65.11
65836;SHT30;52595;51.608;7.216;2022-09-03T03:14:06;14.05;65.25
65836;SHT30;52595;51.608;7.216;2022-09-03T03:16:31;13.94;65.61
65836;SHT30;52595;51.608;7.216;2022-09-03T03:18:57;13.92;65.57
65836;SHT30;52595;51.608;7.216;2022-09-03T03:21:22;14.01;65.32
65836;SHT30;52595;51.608;7.216;2022-09-03T03:23:48;13.88;65.65
65836;SHT30;52595;51.608;7.216;2022-09-03T03:26:16;13.82;66.00
65836;SHT30;52595;51.608;7.216;2022-09-03T03:28:43;13.85;65.83
65836;SHT30;52595;51.608;7.216;2022-09-03T03:31:10;13.81;66.06
65836;SHT30;52595;51.608;7.216;2022-09-03T03:33:37;13.78;66.06
65836;SHT30;52595;51.608;7.216;2022-09-03T03:36:13;13.74;66.24
65836;SHT30;52595;51.608;7.216;2022-09-03T03:38:41;13.72;66.15
65836;SHT30;52595;51.608;7.216;2022-09-03T03:41:12;13.74;66.17
65836;SHT30;52595;51.608;7.216;2022-09-03T03:43:37;13.78;65.94
65836;SHT30;52595;51.608;7.216;2022-09-03T03:46:03;13.69;66.23
65836;SHT30;52595;51.608;7.216;2022-09-03T03:48:30;13.58;66.56
65836;SHT30;52595;51.608;7.216;2022-09-03T03:50:59;13.58;66.71
65836;SHT30;52595;51.608;7.216;2022-09-03T03:53:25;13.61;66.80
65836;SHT30;52595;51.608;7.216;2022-09-03T03:56:01;13.64;66.70
65836;SHT30;52595;51.608;7.216;2022-09-03T03:58:28;13.54;66.85
65836;SHT30;52595;51.608;7.216;2022-09-03T04:01:06;13.54;66.85
65836;SHT30;52595;51.608;7.216;2022-09-03T04:03:32;13.51;66.93
65836;SHT30;52595;51.608;7.216;2022-09-03T04:05:58;13.50;67.22
65836;SHT30;52595;51.608;7.216;2022-09-03T04:08:28;13.45;67.38
65836;SHT30;52595;51.608;7.216;2022-09-03T04:10:57;13.43;67.42
65836;SHT30;52595;51.608;7.216;2022-09-03T04:13:23;13.43;67.51
65836;SHT30;52595;51.608;7.216;2022-09-03T04:15:48;13.44;67.42
65836;SHT30;52595;51.608;7.216;2022-09-03T04:18:14;13.45;67.47
65836;SHT30;52595;51.608;7.216;2022-09-03T04:20:39;13.48;67.39
65836;SHT30;52595;51.608;7.216;2022-09-03T04:23:05;13.41;67.61
65836;SHT30;52595;51.608;7.216;2022-09-03T04:25:30;13.38;67.69
65836;SHT30;52595;51.608;7.216;2022-09-03T04:27:56;13.33;67.84
65836;SHT30;52595;51.608;7.216;2022-09-03T04:30:22;13.35;67.91
65836;SHT30;52595;51.608;7.216;2022-09-03T04:32:50;13.31;67.98
65836;SHT30;52595;51.608;7.216;2022-09-03T04:35:24;13.33;67.85
65836;SHT30;52595;51.608;7.216;2022-09-03T04:37:50;13.38;67.85
65836;SHT30;52595;51.608;7.216;2022-09-03T04:40:15;13.34;67.80
65836;SHT30;52595;51.608;7.216;2022-09-03T04:42:41;13.34;67.91
65836;SHT30;52595;51.608;7.216;2022-09-03T04:45:07;13.28;68.08
65836;SHT30;52595;51.608;7.216;2022-09-03T04:47:33;13.25;68.25
65836;SHT30;52595;51.608;7.216;2022-09-03T04:50:00;13.33;68.03
65836;SHT30;52595;51.608;7.216;2022-09-03T04:52:27;13.27;68.14
65836;SHT30;52595;51.608;7.216;2022-09-03T04:54:54;13.24;68.17
65836;SHT30;52595;51.608;7.216;2022-09-03T04:57:19;13.24;68.34
65836;SHT30;52595;51.608;7.216;2022-09-03T04:59:45;13.21;68.23
65836;SHT30;52595;51.608;7.216;2022-09-03T05:02:11;13.20;68.38
65836;SHT30;52595;51.608;7.216;2022-09-03T05:04:37;13.18;68.39
65836;SHT30;52595;51.608;7.216;2022-09-03T05:07:02;13.14;68.55
65836;SHT30;52595;51.608;7.216;2022-09-03T05:09:27;13.20;68.43
65836;SHT30;52595;51.608;7.216;2022-09-03T05:11:53;13.21;68.46
65836;SHT30;52595;51.608;7.216;2022-09-03T05:14:19;13.20;68.64
65836;SHT30;52595;51.608;7.216;2022-09-03T05:16:44;13.27;68.47
65836;SHT30;52595;51.608;7.216;2022-09-03T05:19:09;13.25;68.53
65836;SHT30;52595;51.608;7.216;2022-09-03T05:21:36;13.34;68.39
65836;SHT30;52595;51.608;7.216;2022-09-03T05:24:02;13.33;68.42
65836;SHT30;52595;51.608;7.216;2022-09-03T05:26:31;13.38;68.30
65836;SHT30;52595;51.608;7.216;2022-09-03T05:28:58;13.41;68.11
65836;SHT30;52595;51.608;7.216;2022-09-03T05:31:26;13.41;68.21
65836;SHT30;52595;51.608;7.216;2022-09-03T05:33:57;13.45;68.28
65836;SHT30;52595;51.608;7.216;2022-09-03T05:36:25;13.44;68.26
65836;SHT30;52595;51.608;7.216;2022-09-03T05:38:51;13.53;68.13
65836;SHT30;52595;51.608;7.216;2022-09-03T05:41:22;13.54;68.05
65836;SHT30;52595;51.608;7.216;2022-09-03T05:43:49;13.61;68.06
65836;SHT30;52595;51.608;7.216;2022-09-03T05:46:21;13.68;67.79
65836;SHT30;52595;51.608;7.216;2022-09-03T05:48:54;13.72;67.66
65836;SHT30;52595;51.608;7.216;2022-09-03T05:51:19;13.72;67.78
65836;SHT30;52595;51.608;7.216;2022-09-03T05:53:46;13.78;67.44
65836;SHT30;52595;51.608;7.216;2022-09-03T05:56:22;13.82;67.56
65836;SHT30;52595;51.608;7.216;2022-09-03T05:58:50;13.85;67.52
65836;SHT30;52595;51.608;7.216;2022-09-03T06:01:21;13.98;67.29
65836;SHT30;52595;51.608;7.216;2022-09-03T06:06:28;14.06;67.16
65836;SHT30;52595;51.608;7.216;2022-09-03T06:08:56;14.10;67.25
65836;SHT30;52595;51.608;7.216;2022-09-03T06:11:23;14.20;66.57
65836;SHT30;52595;51.608;7.216;2022-09-03T06:14:00;14.23;66.88
65836;SHT30;52595;51.608;7.216;2022-09-03T06:16:27;14.32;66.82
65836;SHT30;52595;51.608;7.216;2022-09-03T06:18:53;14.39;66.58
65836;SHT30;52595;51.608;7.216;2022-09-03T06:21:20;14.47;66.54
65836;SHT30;52595;51.608;7.216;2022-09-03T06:23:49;14.57;66.56
65836;SHT30;52595;51.608;7.216;2022-09-03T06:26:18;14.73;65.95
65836;SHT30;52595;51.608;7.216;2022-09-03T06:28:45;14.81;66.07
65836;SHT30;52595;51.608;7.216;2022-09-03T06:31:14;14.87;65.72
65836;SHT30;52595;51.608;7.216;2022-09-03T06:33:40;14.98;65.58
65836;SHT30;52595;51.608;7.216;2022-09-03T06:36:11;15.04;65.56
65836;SHT30;52595;51.608;7.216;2022-09-03T06:38:40;15.12;65.24
65836;SHT30;52595;51.608;7.216;2022-09-03T06:43:38;15.30;64.82
65836;SHT30;52595;51.608;7.216;2022-09-03T06:46:11;15.42;64.96
65836;SHT30;52595;51.608;7.216;2022-09-03T06:48:37;15.51;64.69
65836;SHT30;52595;51.608;7.216;2022-09-03T06:53:35;15.79;63.76
65836;SHT30;52595;51.608;7.216;2022-09-03T06:56:04;15.86;64.07
65836;SHT30;52595;51.608;7.216;2022-09-03T06:58:38;15.93;63.83
65836;SHT30;52595;51.608;7.216;2022-09-03T07:01:09;16.12;62.68
65836;SHT30;52595;51.608;7.216;2022-09-03T07:03:35;16.22;62.57
65836;SHT30;52595;51.608;7.216;2022-09-03T07:06:09;16.37;62.28
65836;SHT30;52595;51.608;7.216;2022-09-03T07:08:35;16.53;61.57
65836;SHT30;52595;51.608;7.216;2022-09-03T07:11:03;16.67;60.62
65836;SHT30;52595;51.608;7.216;2022-09-03T07:13:31;16.80;60.79
65836;SHT30;52595;51.608;7.216;2022-09-03T07:15:59;16.89;60.35
65836;SHT30;52595;51.608;7.216;2022-09-03T07:18:25;17.03;60.25
65836;SHT30;52595;51.608;7.216;2022-09-03T07:20:50;17.12;59.92
65836;SHT30;52595;51.608;7.216;2022-09-03T07:23:15;17.21;59.65
65836;SHT30;52595;51.608;7.216;2022-09-03T07:25:42;17.24;59.59
65836;SHT30;52595;51.608;7.216;2022-09-03T07:28:08;17.32;59.39
65836;SHT30;52595;51.608;7.216;2022-09-03T07:30:33;17.36;59.68
65836;SHT30;52595;51.608;7.216;2022-09-03T07:32:58;17.52;59.31
65836;SHT30;52595;51.608;7.216;2022-09-03T07:35:28;17.62;58.91
65836;SHT30;52595;51.608;7.216;2022-09-03T07:37:54;17.69;58.48
65836;SHT30;52595;51.608;7.216;2022-09-03T07:40:19;17.79;58.03
65836;SHT30;52595;51.608;7.216;2022-09-03T07:42:45;17.87;57.85
65836;SHT30;52595;51.608;7.216;2022-09-03T07:45:12;18.00;57.86
65836;SHT30;52595;51.608;7.216;2022-09-03T07:47:45;18.07;57.69
65836;SHT30;52595;51.608;7.216;2022-09-03T07:50:11;18.20;57.08
65836;SHT30;52595;51.608;7.216;2022-09-03T07:52:37;18.31;56.70
65836;SHT30;52595;51.608;7.216;2022-09-03T07:55:02;18.38;56.45
65836;SHT30;52595;51.608;7.216;2022-09-03T07:57:29;18.48;56.49
65836;SHT30;52595;51.608;7.216;2022-09-03T07:59:54;18.55;56.12
65836;SHT30;52595;51.608;7.216;2022-09-03T08:02:20;18.65;55.82
65836;SHT30;52595;51.608;7.216;2022-09-03T08:04:45;18.69;55.59
65836;SHT30;52595;51.608;7.216;2022-09-03T08:07:11;18.83;55.62
65836;SHT30;52595;51.608;7.216;2022-09-03T08:09:36;18.88;55.76
65836;SHT30;52595;51.608;7.216;2022-09-03T08:12:02;18.98;55.37
65836;SHT30;52595;51.608;7.216;2022-09-03T08:14:28;19.08;55.12
65836;SHT30;52595;51.608;7.216;2022-09-03T08:16:56;19.14;55.41
65836;SHT30;52595;51.608;7.216;2022-09-03T08:19:24;19.25;54.26
65836;SHT30;52595;51.608;7.216;2022-09-03T08:21:49;19.33;54.27
65836;SHT30;52595;51.608;7.216;2022-09-03T08:24:16;19.42;54.60
65836;SHT30;52595;51.608;7.216;2022-09-03T08:26:45;19.46;53.73
65836;SHT30;52595;51.608;7.216;2022-09-03T08:29:10;19.52;54.01
65836;SHT30;52595;51.608;7.216;2022-09-03T08:31:36;19.67;54.42
65836;SHT30;52595;51.608;7.216;2022-09-03T08:34:04;19.79;53.47
65836;SHT30;52595;51.608;7.216;2022-09-03T08:36:32;19.91;53.36
65836;SHT30;52595;51.608;7.216;2022-09-03T08:39:00;20.01;53.01
65836;SHT30;52595;51.608;7.216;2022-09-03T08:44:45;20.31;52.83
65836;SHT30;52595;51.608;7.216;2022-09-03T08:47:27;20.45;52.79
65836;SHT30;52595;51.608;7.216;2022-09-03T08:58:22;20.95;51.48
65836;SHT30;52595;51.608;7.216;2022-09-03T09:00:52;21.10;50.79
65836;SHT30;52595;51.608;7.216;2022-09-03T09:09:12;21.16;50.99
65836;SHT30;52595;51.608;7.216;2022-09-03T09:22:48;21.54;50.74
65836;SHT30;52595;51.608;7.216;2022-09-03T09:25:21;21.71;49.83
65836;SHT30;52595;51.608;7.216;2022-09-03T09:27:51;21.74;49.53
65836;SHT30;52595;51.608;7.216;2022-09-03T09:30:17;21.91;49.75
65836;SHT30;52595;51.608;7.216;2022-09-03T09:32:43;21.90;49.45
65836;SHT30;52595;51.608;7.216;2022-09-03T09:35:11;22.03;49.08
65836;SHT30;52595;51.608;7.216;2022-09-03T09:37:51;22.13;49.27
65836;SHT30;52595;51.608;7.216;2022-09-03T09:40:31;22.18;48.75
65836;SHT30;52595;51.608;7.216;2022-09-03T09:43:11;22.47;48.62
65836;SHT30;52595;51.608;7.216;2022-09-03T09:45:40;22.58;48.33
65836;SHT30;52595;51.608;7.216;2022-09-03T09:50:42;22.79;47.55
65836;SHT30;52595;51.608;7.216;2022-09-03T09:53:09;22.92;47.51
65836;SHT30;52595;51.608;7.216;2022-09-03T09:58:14;23.12;46.82
65836;SHT30;52595;51.608;7.216;2022-09-03T10:01:02;23.22;46.57
65836;SHT30;52595;51.608;7.216;2022-09-03T10:03:32;23.22;46.99
65836;SHT30;52595;51.608;7.216;2022-09-03T10:06:08;23.45;46.85
65836;SHT30;52595;51.608;7.216;2022-09-03T10:09:06;23.67;46.38
65836;SHT30;52595;51.608;7.216;2022-09-03T10:11:33;23.78;45.95
65836;SHT30;52595;51.608;7.216;2022-09-03T10:14:02;23.83;45.81
65836;SHT30;52595;51.608;7.216;2022-09-03T10:16:32;23.81;46.02
65836;SHT30;52595;51.608;7.216;2022-09-03T10:19:08;24.00;45.74
65836;SHT30;52595;51.608;7.216;2022-09-03T10:22:02;24.11;45.62
65836;SHT30;52595;51.608;7.216;2022-09-03T10:24:51;24.18;45.33
65836;SHT30;52595;51.608;7.216;2022-09-03T10:27:20;24.29;45.17
65836;SHT30;52595;51.608;7.216;2022-09-03T10:29:47;24.31;45.10
65836;SHT30;52595;51.608;7.216;2022-09-03T10:35:05;24.49;44.34
65836;SHT30;52595;51.608;7.216;2022-09-03T10:37:42;24.64;44.88
65836;SHT30;52595;51.608;7.216;2022-09-03T10:40:28;24.96;44.85
65836;SHT30;52595;51.608;7.216;2022-09-03T10:49:01;25.30;43.72
65836;SHT30;52595;51.608;7.216;2022-09-03T10:51:43;25.44;43.27
65836;SHT30;52595;51.608;7.216;2022-09-03T10:54:42;25.53;42.89
65836;SHT30;52595;51.608;7.216;2022-09-03T10:57:35;25.69;42.71
65836;SHT30;52595;51.608;7.216;2022-09-03T11:00:07;26.01;42.42
65836;SHT30;52595;51.608;7.216;2022-09-03T11:03:33;26.45;41.20
65836;SHT30;52595;51.608;7.216;2022-09-03T11:06:27;27.36;39.78
65836;SHT30;52595;51.608;7.216;2022-09-03T11:12:18;29.55;36.81
65836;SHT30;52595;51.608;7.216;2022-09-03T11:14:53;30.15;36.55
65836;SHT30;52595;51.608;7.216;2022-09-03T11:17:31;30.89;34.51
65836;SHT30;52595;51.608;7.216;2022-09-03T11:20:18;31.65;33.79
65836;SHT30;52595;51.608;7.216;2022-09-03T11:22:45;31.55;34.02
65836;SHT30;52595;51.608;7.216;2022-09-03T11:25:14;32.37;32.60
65836;SHT30;52595;51.608;7.216;2022-09-03T11:30:13;33.71;30.87
65836;SHT30;52595;51.608;7.216;2022-09-03T11:35:27;33.43;31.39
65836;SHT30;52595;51.608;7.216;2022-09-03T11:38:00;33.06;31.70
65836;SHT30;52595;51.608;7.216;2022-09-03T11:40:37;32.87;31.71
65836;SHT30;52595;51.608;7.216;2022-09-03T11:43:23;32.63;32.46
65836;SHT30;52595;51.608;7.216;2022-09-03T11:51:04;33.17;31.44
65836;SHT30;52595;51.608;7.216;2022-09-03T11:53:59;34.00;30.12
65836;SHT30;52595;51.608;7.216;2022-09-03T11:56:27;33.70;30.14
65836;SHT30;52595;51.608;7.216;2022-09-03T12:01:42;31.28;33.28
65836;SHT30;52595;51.608;7.216;2022-09-03T12:04:13;30.66;33.88
65836;SHT30;52595;51.608;7.216;2022-09-03T12:10:03;32.46;31.70
65836;SHT30;52595;51.608;7.216;2022-09-03T12:12:51;34.36;30.46
65836;SHT30;52595;51.608;7.216;2022-09-03T12:18:04;36.08;27.77
65836;SHT30;52595;51.608;7.216;2022-09-03T12:20:59;35.46;28.44
65836;SHT30;52595;51.608;7.216;2022-09-03T12:23:32;35.07;28.60
65836;SHT30;52595;51.608;7.216;2022-09-03T12:26:02;35.24;28.69
65836;SHT30;52595;51.608;7.216;2022-09-03T12:28:29;34.94;29.49
65836;SHT30;52595;51.608;7.216;2022-09-03T12:31:06;35.36;28.96
65836;SHT30;52595;51.608;7.216;2022-09-03T12:33:39;35.98;28.19
65836;SHT30;52595;51.608;7.216;2022-09-03T12:36:08;36.53;27.97
65836;SHT30;52595;51.608;7.216;2022-09-03T12:38:34;36.49;28.08
65836;SHT30;52595;51.608;7.216;2022-09-03T12:40:59;37.14;27.19
65836;SHT30;52595;51.608;7.216;2022-09-03T12:43:28;36.75;27.05
65836;SHT30;52595;51.608;7.216;2022-09-03T12:45:54;36.97;27.35
65836;SHT30;52595;51.608;7.216;2022-09-03T12:48:20;36.61;27.18
65836;SHT30;52595;51.608;7.216;2022-09-03T12:50:47;36.65;27.60
65836;SHT30;52595;51.608;7.216;2022-09-03T12:53:21;38.02;26.32
65836;SHT30;52595;51.608;7.216;2022-09-03T12:55:51;38.14;26.39
65836;SHT30;52595;51.608;7.216;2022-09-03T12:58:24;38.92;25.77
65836;SHT30;52595;51.608;7.216;2022-09-03T13:03:34;37.33;26.85
65836;SHT30;52595;51.608;7.216;2022-09-03T13:06:08;37.84;26.56
65836;SHT30;52595;51.608;7.216;2022-09-03T13:08:46;38.44;26.00
65836;SHT30;52595;51.608;7.216;2022-09-03T13:11:16;38.96;25.49
65836;SHT30;52595;51.608;7.216;2022-09-03T13:13:58;36.19;27.99
65836;SHT30;52595;51.608;7.216;2022-09-03T13:30:13;34.73;29.46
65836;SHT30;52595;51.608;7.216;2022-09-03T13:33:01;35.38;28.92
65836;SHT30;52595;51.608;7.216;2022-09-03T13:35:40;35.23;29.08
65836;SHT30;52595;51.608;7.216;2022-09-03T13:41:15;33.68;30.88
65836;SHT30;52595;51.608;7.216;2022-09-03T13:43:48;32.86;32.28
65836;SHT30;52595;51.608;7.216;2022-09-03T13:49:01;35.61;28.84
65836;SHT30;52595;51.608;7.216;2022-09-03T13:51:55;34.53;29.49
65836;SHT30;52595;51.608;7.216;2022-09-03T13:54:24;34.70;29.86
65836;SHT30;52595;51.608;7.216;2022-09-03T13:57:07;36.19;28.29
65836;SHT30;52595;51.608;7.216;2022-09-03T14:02:49;38.21;26.37
65836;SHT30;52595;51.608;7.216;2022-09-03T14:05:24;38.35;26.55
65836;SHT30;52595;51.608;7.216;2022-09-03T14:08:14;38.87;25.84
65836;SHT30;52595;51.608;7.216;2022-09-03T14:19:54;37.16;27.60
65836;SHT30;52595;51.608;7.216;2022-09-03T14:22:25;37.80;27.42
65836;SHT30;52595;51.608;7.216;2022-09-03T14:25:08;36.12;28.46
65836;SHT30;52595;51.608;7.216;2022-09-03T14:27:35;36.49;28.37
65836;SHT30;52595;51.608;7.216;2022-09-03T14:30:04;38.01;26.90
65836;SHT30;52595;51.608;7.216;2022-09-03T14:37:53;35.07;29.93
65836;SHT30;52595;51.608;7.216;2022-09-03T14:40:42;33.61;31.68
65836;SHT30;52595;51.608;7.216;2022-09-03T14:46:26;31.33;36.01
65836;SHT30;52595;51.608;7.216;2022-09-03T15:00:08;28.75;40.93
65836;SHT30;52595;51.608;7.216;2022-09-03T15:05:48;29.20;40.82
65836;SHT30;52595;51.608;7.216;2022-09-03T15:08:38;28.86;41.10
65836;SHT30;52595;51.608;7.216;2022-09-03T15:11:16;28.87;41.17
65836;SHT30;52595;51.608;7.216;2022-09-03T15:13:50;28.90;41.35
65836;SHT30;52595;51.608;7.216;2022-09-03T15:27:26;29.41;40.07
65836;SHT30;52595;51.608;7.216;2022-09-03T15:36:05;30.01;38.77
65836;SHT30;52595;51.608;7.216;2022-09-03T15:38:41;30.05;39.29
65836;SHT30;52595;51.608;7.216;2022-09-03T15:41:30;30.97;37.80
65836;SHT30;52595;51.608;7.216;2022-09-03T15:43:59;31.27;37.59
65836;SHT30;52595;51.608;7.216;2022-09-03T15:46:40;31.95;36.24
65836;SHT30;52595;51.608;7.216;2022-09-03T15:49:26;32.82;35.26
65836;SHT30;52595;51.608;7.216;2022-09-03T15:55:07;30.32;38.49
65836;SHT30;52595;51.608;7.216;2022-09-03T16:00:12;29.51;40.08
65836;SHT30;52595;51.608;7.216;2022-09-03T16:06:01;28.60;41.22
65836;SHT30;52595;51.608;7.216;2022-09-03T16:08:41;28.25;41.91
65836;SHT30;52595;51.608;7.216;2022-09-03T16:12:32;27.95;42.49
65836;SHT30;52595;51.608;7.216;2022-09-03T16:16:51;27.55;43.67
65836;SHT30;52595;51.608;7.216;2022-09-03T16:19:52;27.40;44.18
65836;SHT30;52595;51.608;7.216;2022-09-03T16:22:26;27.31;44.63
65836;SHT30;52595;51.608;7.216;2022-09-03T16:25:02;27.37;44.86
65836;SHT30;52595;51.608;7.216;2022-09-03T16:30:30;27.65;43.66
65836;SHT30;52595;51.608;7.216;2022-09-03T16:38:46;29.03;41.11
65836;SHT30;52595;51.608;7.216;2022-09-03T16:46:59;28.89;41.50
65836;SHT30;52595;51.608;7.216;2022-09-03T16:55:19;32.16;36.43
65836;SHT30;52595;51.608;7.216;2022-09-03T16:57:58;31.03;38.02
65836;SHT30;52595;51.608;7.216;2022-09-03T17:00:35;29.68;40.13
65836;SHT30;52595;51.608;7.216;2022-09-03T17:03:38;28.95;41.84
65836;SHT30;52595;51.608;7.216;2022-09-03T17:06:19;28.39;42.66
65836;SHT30;52595;51.608;7.216;2022-09-03T17:14:48;27.46;44.52
65836;SHT30;52595;51.608;7.216;2022-09-03T17:23:01;26.52;46.32
65836;SHT30;52595;51.608;7.216;2022-09-03T17:25:47;26.26;46.70
65836;SHT30;52595;51.608;7.216;2022-09-03T17:31:33;25.91;47.33
65836;SHT30;52595;51.608;7.216;2022-09-03T17:34:18;25.70;47.57
65836;SHT30;52595;51.608;7.216;2022-09-03T17:39:49;25.34;48.11
65836;SHT30;52595;51.608;7.216;2022-09-03T17:42:32;25.30;48.37
65836;SHT30;52595;51.608;7.216;2022-09-03T17:47:46;25.09;48.94
65836;SHT30;52595;51.608;7.216;2022-09-03T17:50:20;24.96;49.10
65836;SHT30;52595;51.608;7.216;2022-09-03T17:52:51;24.85;49.47
65836;SHT30;52595;51.608;7.216;2022-09-03T17:55:36;24.75;49.75
65836;SHT30;52595;51.608;7.216;2022-09-03T17:58:27;24.66;50.09
65836;SHT30;52595;51.608;7.216;2022-09-03T18:01:02;24.59;50.30
65836;SHT30;52595;51.608;7.216;2022-09-03T18:06:33;24.38;50.70
65836;SHT30;52595;51.608;7.216;2022-09-03T18:11:38;24.14;51.60
65836;SHT30;52595;51.608;7.216;2022-09-03T18:17:30;23.93;51.98
65836;SHT30;52595;51.608;7.216;2022-09-03T18:20:09;23.81;52.40
65836;SHT30;52595;51.608;7.216;2022-09-03T18:26:30;23.60;52.82
65836;SHT30;52595;51.608;7.216;2022-09-03T18:31:57;23.40;53.18
65836;SHT30;52595;51.608;7.216;2022-09-03T18:34:41;23.34;53.27
65836;SHT30;52595;51.608;7.216;2022-09-03T18:37:26;23.29;53.46
65836;SHT30;52595;51.608;7.216;2022-09-03T18:40:17;23.23;53.46
65836;SHT30;52595;51.608;7.216;2022-09-03T18:49:25;23.13;53.44
65836;SHT30;52595;51.608;7.216;2022-09-03T18:58:41;22.86;53.62
65836;SHT30;52595;51.608;7.216;2022-09-03T19:01:31;22.79;53.42
65836;SHT30;52595;51.608;7.216;2022-09-03T19:08:15;22.59;53.68
65836;SHT30;52595;51.608;7.216;2022-09-03T19:10:54;22.48;54.01
65836;SHT30;52595;51.608;7.216;2022-09-03T19:13:39;22.33;54.28
65836;SHT30;52595;51.608;7.216;2022-09-03T19:22:53;21.94;55.16
65836;SHT30;52595;51.608;7.216;2022-09-03T19:25:30;21.80;55.61
65836;SHT30;52595;51.608;7.216;2022-09-03T19:28:24;21.63;56.14
65836;SHT30;52595;51.608;7.216;2022-09-03T19:37:16;21.25;57.26
65836;SHT30;52595;51.608;7.216;2022-09-03T19:43:31;20.96;58.10
65836;SHT30;52595;51.608;7.216;2022-09-03T19:52:56;21.05;62.00
65836;SHT30;52595;51.608;7.216;2022-09-03T19:55:45;20.94;62.80
65836;SHT30;52595;51.608;7.216;2022-09-03T19:58:31;20.92;65.13
65836;SHT30;52595;51.608;7.216;2022-09-03T20:01:16;20.91;65.05
65836;SHT30;52595;51.608;7.216;2022-09-03T20:04:28;20.81;66.00
65836;SHT30;52595;51.608;7.216;2022-09-03T20:07:13;20.68;66.89
65836;SHT30;52595;51.608;7.216;2022-09-03T20:10:00;20.59;67.30
65836;SHT30;52595;51.608;7.216;2022-09-03T20:12:50;20.69;67.67
65836;SHT30;52595;51.608;7.216;2022-09-03T20:15:18;20.72;67.93
65836;SHT30;52595;51.608;7.216;2022-09-03T20:23:21;20.37;69.97
65836;SHT30;52595;51.608;7.216;2022-09-03T20:32:15;20.31;71.08
65836;SHT30;52595;51.608;7.216;2022-09-03T20:34:34;20.20;71.55
65836;SHT30;52595;51.608;7.216;2022-09-03T20:48:26;19.74;73.53
65836;SHT30;52595;51.608;7.216;2022-09-03T20:51:07;19.63;73.82
65836;SHT30;52595;51.608;7.216;2022-09-03T20:53:52;19.53;74.18
65836;SHT30;52595;51.608;7.216;2022-09-03T20:56:44;19.42;74.58
65836;SHT30;52595;51.608;7.216;2022-09-03T21:12:38;18.96;76.05
65836;SHT30;52595;51.608;7.216;2022-09-03T21:15:15;18.94;76.20
65836;SHT30;52595;51.608;7.216;2022-09-03T21:20:59;18.83;76.73
65836;SHT30;52595;51.608;7.216;2022-09-03T21:23:33;18.75;76.98
65836;SHT30;52595;51.608;7.216;2022-09-03T21:29:18;18.58;77.43
65836;SHT30;52595;51.608;7.216;2022-09-03T21:32:03;18.48;77.76
65836;SHT30;52595;51.608;7.216;2022-09-03T21:34:38;18.43;78.16
65836;SHT30;52595;51.608;7.216;2022-09-03T21:37:07;18.33;78.42
65836;SHT30;52595;51.608;7.216;2022-09-03T21:39:41;18.23;78.87
65836;SHT30;52595;51.608;7.216;2022-09-03T21:42:16;18.20;79.14
65836;SHT30;52595;51.608;7.216;2022-09-03T21:44:50;18.20;79.09
65836;SHT30;52595;51.608;7.216;2022-09-03T21:47:18;18.20;78.97
65836;SHT30;52595;51.608;7.216;2022-09-03T21:52:56;18.20;79.02
65836;SHT30;52595;51.608;7.216;2022-09-03T21:55:45;18.14;79.07
65836;SHT30;52595;51.608;7.216;2022-09-03T21:58:27;18.07;79.23
65836;SHT30;52595;51.608;7.216;2022-09-03T22:01:04;18.07;78.96
65836;SHT30;52595;51.608;7.216;2022-09-03T22:03:31;18.02;79.39